Rabbit Lake, Canada
Current Conditions -  °F | °C
As of 12:00 PM on Monday 26 Jan 2015 (Local Time) from CYQW Reporting Station
Overcast Overcast  
Wind Chill: 37°   Ceiling: 9500
Heat Index: 37°   Visibility: 9mi
Dew Point: 32°   Wind: 2mph
Humidity: 81%   Direction: NA
Pressure: 29.89"   Gusts: NA
Location:  53.13°N, 107.77°W
Report Text: CYQW 261800Z AUTO VRB02KT 9SM OVC095 03/M00 A2989 RMK SLP145
Loading
Personal Weather Stations






























Interactive Weather Map New forecast layout! Learn more

10-Day Weather Forecast

Advertisements
Track Severe Weather on mobile